Map

Track Data

SID SEASON NUMBER BASIN SUBBASIN NAME ISO_TIME NATURE LAT LON WMO_WIND WMO_PRES WMO_AGENCY TRACK_TYPE DIST2LAND LANDFALL IFLAG USA_AGENCY USA_ATCF_ID USA_LAT USA_LON USA_RECORD USA_STATUS USA_WIND USA_PRES USA_SSHS USA_R34_NE USA_R34_SE USA_R34_SW USA_R34_NW USA_R50_NE USA_R50_SE USA_R50_SW USA_R50_NW USA_R64_NE USA_R64_SE USA_R64_SW USA_R64_NW USA_POCI USA_ROCI USA_RMW USA_EYE TOKYO_LAT TOKYO_LON TOKYO_GRADE TOKYO_WIND TOKYO_PRES TOKYO_R50_DIR TOKYO_R50_LONG TOKYO_R50_SHORT TOKYO_R30_DIR TOKYO_R30_LONG TOKYO_R30_SHORT TOKYO_LAND CMA_LAT CMA_LON CMA_CAT CMA_WIND CMA_PRES HKO_LAT HKO_LON HKO_CAT HKO_WIND HKO_PRES NEWDELHI_LAT NEWDELHI_LON NEWDELHI_GRADE NEWDELHI_WIND NEWDELHI_PRES NEWDELHI_CI NEWDELHI_DP NEWDELHI_POCI REUNION_LAT REUNION_LON REUNION_TYPE REUNION_WIND REUNION_PRES REUNION_TNUM REUNION_CI REUNION_RMW REUNION_R34_NE REUNION_R34_SE REUNION_R34_SW REUNION_R34_NW REUNION_R50_NE REUNION_R50_SE REUNION_R50_SW REUNION_R50_NW REUNION_R64_NE REUNION_R64_SE REUNION_R64_SW REUNION_R64_NW BOM_LAT BOM_LON BOM_TYPE BOM_WIND BOM_PRES BOM_TNUM BOM_CI BOM_RMW BOM_R34_NE BOM_R34_SE BOM_R34_SW BOM_R34_NW BOM_R50_NE BOM_R50_SE BOM_R50_SW BOM_R50_NW BOM_R64_NE BOM_R64_SE BOM_R64_SW BOM_R64_NW BOM_ROCI BOM_POCI BOM_EYE BOM_POS_METHOD BOM_PRES_METHOD NADI_LAT NADI_LON NADI_CAT NADI_WIND NADI_PRES WELLINGTON_LAT WELLINGTON_LON WELLINGTON_WIND WELLINGTON_PRES DS824_LAT DS824_LON DS824_STAGE DS824_WIND DS824_PRES TD9636_LAT TD9636_LON TD9636_STAGE TD9636_WIND TD9636_PRES TD9635_LAT TD9635_LON TD9635_WIND TD9635_PRES TD9635_ROCI NEUMANN_LAT NEUMANN_LON NEUMANN_CLASS NEUMANN_WIND NEUMANN_PRES MLC_LAT MLC_LON MLC_CLASS MLC_WIND MLC_PRES USA_GUST BOM_GUST BOM_GUST_PER REUNION_GUST REUNION_GUST_PER USA_SEAHGT USA_SEARAD_NE USA_SEARAD_SE USA_SEARAD_SW USA_SEARAD_NW STORM_SPEED STORM_DIR
1910248N17302 1910 37 NA NA NOT_NAMED 1910-09-05 06:00:00 TS 17.0000 -58.3000 60 hurdat_atl main 763 720 O_____________ hurdat_atl AL031910 17.0000 -58.3000 TS 60 0 12 276
1910248N17302 1910 37 NA NA NOT_NAMED 1910-09-05 09:00:00 TS 17.0604 -58.9099 main 720 658 P_____________ AL031910 17.0604 -58.9099 TS 62 0 12 275
1910248N17302 1910 37 NA NA NOT_NAMED 1910-09-05 12:00:00 TS 17.1000 -59.5000 65 hurdat_atl main 658 606 O_____________ hurdat_atl AL031910 17.1000 -59.5000 HU 65 1 11 272
1910248N17302 1910 37 NA NA NOT_NAMED 1910-09-05 15:00:00 TS 17.1073 -60.0576 main 595 543 P_____________ AL031910 17.1073 -60.0576 HU 67 1 11 270
1910248N17302 1910 37 NA NA NOT_NAMED 1910-09-05 18:00:00 TS 17.1000 -60.6000 70 hurdat_atl main 543 492 O_____________ hurdat_atl AL031910 17.1000 -60.6000 HU 70 1 11 269
1910248N17302 1910 37 NA CS NOT_NAMED 1910-09-05 21:00:00 TS 17.0924 -61.1576 main 482 431 P_____________ AL031910 17.0924 -61.1576 HU 72 1 11 270
1910248N17302 1910 37 NA CS NOT_NAMED 1910-09-06 00:00:00 TS 17.1000 -61.7000 75 hurdat_atl main 431 380 O_____________ hurdat_atl AL031910 17.1000 -61.7000 HU 75 1 10 272
1910248N17302 1910 37 NA CS NOT_NAMED 1910-09-06 03:00:00 TS 17.1348 -62.2000 main 380 326 P_____________ AL031910 17.1348 -62.2000 HU 77 1 10 276
1910248N17302 1910 37 NA CS NOT_NAMED 1910-09-06 06:00:00 TS 17.2000 -62.7000 80 hurdat_atl main 326 273 O_____________ hurdat_atl AL031910 17.2000 -62.7000 HU 80 1 10 279
1910248N17302 1910 37 NA CS NOT_NAMED 1910-09-06 09:00:00 TS 17.2999 -63.2424 main 273 210 P_____________ AL031910 17.2999 -63.2424 HU 80 1 11 281
1910248N17302 1910 37 NA CS NOT_NAMED 1910-09-06 12:00:00 TS 17.4000 -63.8000 80 hurdat_atl main 210 158 O_____________ hurdat_atl AL031910 17.4000 -63.8000 HU 80 1 11 279
1910248N17302 1910 37 NA CS NOT_NAMED 1910-09-06 15:00:00 TS 17.4648 -64.3500 main 149 107 P_____________ AL031910 17.4648 -64.3500 HU 82 1 11 275
1910248N17302 1910 37 NA CS NOT_NAMED 1910-09-06 18:00:00 TS 17.5000 -64.9000 85 hurdat_atl main 107 70 O_____________ hurdat_atl AL031910 17.5000 -64.9000 HU 85 2 11 272
1910248N17302 1910 37 NA CS NOT_NAMED 1910-09-06 21:00:00 TS 17.4998 -65.4501 main 64 49 P_____________ AL031910 17.4998 -65.4501 HU 85 2 11 270
1910248N17302 1910 37 NA CS NOT_NAMED 1910-09-07 00:00:00 TS 17.5000 -66.0000 85 hurdat_atl main 49 44 O_____________ hurdat_atl AL031910 17.5000 -66.0000 HU 85 2 11 273
1910248N17302 1910 37 NA CS NOT_NAMED 1910-09-07 03:00:00 TS 17.5498 -66.5499 main 54 33 P_____________ AL031910 17.5498 -66.5499 HU 85 2 11 275
1910248N17302 1910 37 NA CS NOT_NAMED 1910-09-07 06:00:00 TS 17.6000 -67.1000 85 hurdat_atl main 35 33 O_____________ hurdat_atl AL031910 17.6000 -67.1000 HU 85 2 10 273
1910248N17302 1910 37 NA CS NOT_NAMED 1910-09-07 09:00:00 TS 17.6071 -67.6201 main 54 54 P_____________ AL031910 17.6071 -67.6201 HU 82 1 10 270
1910248N17302 1910 37 NA CS NOT_NAMED 1910-09-07 12:00:00 TS 17.6000 -68.2000 80 hurdat_atl main 79 67 O_____________ hurdat_atl AL031910 17.6000 -68.2000 HU 80 1 12 269
1910248N17302 1910 37 NA CS NOT_NAMED 1910-09-07 15:00:00 TS 17.5925 -68.9201 main 67 67 P_____________ AL031910 17.5925 -68.9201 HU 77 1 14 270
1910248N17302 1910 37 NA CS NOT_NAMED 1910-09-07 18:00:00 TS 17.6000 -69.7000 75 hurdat_atl main 85 67 O_____________ hurdat_atl AL031910 17.6000 -69.7000 HU 75 1 14 272
1910248N17302 1910 37 NA CS NOT_NAMED 1910-09-07 21:00:00 TS 17.6420 -70.4350 main 67 15 P_____________ AL031910 17.6420 -70.4350 HU 72 1 14 274
1910248N17302 1910 37 NA CS NOT_NAMED 1910-09-08 00:00:00 TS 17.7000 -71.2000 70 hurdat_atl main 15 0 O_____________ hurdat_atl AL031910 17.7000 -71.2000 HU 70 1 15 274
1910248N17302 1910 37 NA CS NOT_NAMED 1910-09-08 03:00:00 TS 17.7422 -72.0277 main 43 33 P_____________ AL031910 17.7422 -72.0277 HU 70 1 16 274
1910248N17302 1910 37 NA CS NOT_NAMED 1910-09-08 06:00:00 TS 17.8000 -72.9000 70 hurdat_atl main 35 15 O_____________ hurdat_atl AL031910 17.8000 -72.9000 HU 70 1 17 275
1910248N17302 1910 37 NA CS NOT_NAMED 1910-09-08 09:00:00 TS 17.8848 -73.8001 main 11 11 P_____________ AL031910 17.8848 -73.8001 HU 70 1 17 277
1910248N17302 1910 37 NA CS NOT_NAMED 1910-09-08 12:00:00 TS 18.0000 -74.7000 70 hurdat_atl main 46 46 O_____________ hurdat_atl AL031910 18.0000 -74.7000 HU 70 1 17 279
1910248N17302 1910 37 NA CS NOT_NAMED 1910-09-08 15:00:00 TS 18.1423 -75.5800 main 67 11 P_____________ AL031910 18.1423 -75.5800 HU 70 1 16 281
1910248N17302 1910 37 NA CS NOT_NAMED 1910-09-08 18:00:00 TS 18.3000 -76.4000 70 hurdat_atl main 11 0 O_____________ hurdat_atl AL031910 18.3000 -76.4000 HU 70 1 15 282
1910248N17302 1910 37 NA CS NOT_NAMED 1910-09-08 21:00:00 TS 18.4420 -77.1228 main 0 0 P_____________ AL031910 18.4420 -77.1228 HU 70 1 14 283
1910248N17302 1910 37 NA CS NOT_NAMED 1910-09-09 00:00:00 TS 18.6000 -77.8000 70 hurdat_atl main 22 22 O_____________ hurdat_atl AL031910 18.6000 -77.8000 HU 70 1 13 285
1910248N17302 1910 37 NA CS NOT_NAMED 1910-09-09 03:00:00 TS 18.7847 -78.4927 main 49 49 P_____________ AL031910 18.7847 -78.4927 HU 70 1 14 287
1910248N17302 1910 37 NA CS NOT_NAMED 1910-09-09 06:00:00 TS 19.0000 -79.2000 70 hurdat_atl main 116 116 O_____________ hurdat_atl AL031910 19.0000 -79.2000 HU 70 1 15 288
1910248N17302 1910 37 NA CS NOT_NAMED 1910-09-09 09:00:00 TS 19.2426 -79.9724 main 200 200 P_____________ AL031910 19.2426 -79.9724 HU 70 1 15 289
1910248N17302 1910 37 NA CS NOT_NAMED 1910-09-09 12:00:00 TS 19.5000 -80.7000 70 hurdat_atl main 256 246 O_____________ hurdat_atl AL031910 19.5000 -80.7000 HU 70 1 13 292
1910248N17302 1910 37 NA CS NOT_NAMED 1910-09-09 15:00:00 TS 19.7495 -81.2803 main 246 187 P_____________ AL031910 19.7495 -81.2803 HU 70 1 12 296
1910248N17302 1910 37 NA CS NOT_NAMED 1910-09-09 18:00:00 TS 20.0000 -81.8000 70 hurdat_atl main 187 143 O_____________ hurdat_atl AL031910 20.0000 -81.8000 HU 70 1 11 296
1910248N17302 1910 37 NA CS NOT_NAMED 1910-09-09 21:00:00 TS 20.2575 -82.3650 main 129 100 P_____________ AL031910 20.2575 -82.3650 HU 70 1 11 296
1910248N17302 1910 37 NA CS NOT_NAMED 1910-09-10 00:00:00 TS 20.5000 -82.9000 70 hurdat_atl main 101 88 O_____________ hurdat_atl AL031910 20.5000 -82.9000 HU 70 1 10 296
1910248N17302 1910 37 NA CS NOT_NAMED 1910-09-10 03:00:00 TS 20.7073 -83.3652 main 98 93 P_____________ AL031910 20.7073 -83.3652 HU 72 1 9 295
1910248N17302 1910 37 NA CS NOT_NAMED 1910-09-10 06:00:00 TS 20.9000 -83.8000 75 hurdat_atl main 106 80 O_____________ hurdat_atl AL031910 20.9000 -83.8000 HU 75 1 9 295
1910248N17302 1910 37 NA CS NOT_NAMED 1910-09-10 09:00:00 TS 21.1001 -84.2875 main 80 56 P_____________ AL031910 21.1001 -84.2875 HU 77 1 9 295
1910248N17302 1910 37 NA CS NOT_NAMED 1910-09-10 12:00:00 TS 21.3000 -84.7000 80 hurdat_atl main 56 35 O_____________ hurdat_atl AL031910 21.3000 -84.7000 HU 80 1 7 304
1910248N17302 1910 37 NA CS NOT_NAMED 1910-09-10 15:00:00 TS 21.4998 -84.9302 main 35 24 P_____________ AL031910 21.4998 -84.9302 HU 80 1 5 317
1910248N17302 1910 37 NA CS NOT_NAMED 1910-09-10 18:00:00 TS 21.7000 -85.1000 80 hurdat_atl main 24 23 O_____________ hurdat_atl AL031910 21.7000 -85.1000 HU 80 1 6 317
1910248N17302 1910 37 NA GM NOT_NAMED 1910-09-10 21:00:00 TS 21.9000 -85.3351 main 30 30 P_____________ AL031910 21.9000 -85.3351 HU 82 1 6 311
1910248N17302 1910 37 NA GM NOT_NAMED 1910-09-11 00:00:00 TS 22.1000 -85.6000 85 hurdat_atl main 65 65 O_____________ hurdat_atl AL031910 22.1000 -85.6000 HU 85 2 6 309
1910248N17302 1910 37 NA GM NOT_NAMED 1910-09-11 03:00:00 TS 22.2999 -85.8776 main 102 102 P_____________ AL031910 22.2999 -85.8776 HU 85 2 7 306
1910248N17302 1910 37 NA GM NOT_NAMED 1910-09-11 06:00:00 TS 22.5000 -86.2000 85 hurdat_atl main 138 133 O_____________ hurdat_atl AL031910 22.5000 -86.2000 HU 85 2 8 301
1910248N17302 1910 37 NA GM NOT_NAMED 1910-09-11 09:00:00 TS 22.7076 -86.5999 main 140 137 P_____________ AL031910 22.7076 -86.5999 HU 85 2 8 298
1910248N17302 1910 37 NA GM NOT_NAMED 1910-09-11 12:00:00 TS 22.9000 -87.0000 85 hurdat_atl main 156 156 O_____________ hurdat_atl AL031910 22.9000 -87.0000 HU 85 2 7 298
1910248N17302 1910 37 NA GM NOT_NAMED 1910-09-11 15:00:00 TS 23.0498 -87.3078 main 168 168 P_____________ AL031910 23.0498 -87.3078 HU 85 2 6 299
1910248N17302 1910 37 NA GM NOT_NAMED 1910-09-11 18:00:00 TS 23.2000 -87.6000 85 hurdat_atl main 190 190 O_____________ hurdat_atl AL031910 23.2000 -87.6000 HU 85 2 7 300
1910248N17302 1910 37 NA GM NOT_NAMED 1910-09-11 21:00:00 TS 23.3925 -87.9500 main 212 212 P_____________ AL031910 23.3925 -87.9500 HU 87 2 8 302
1910248N17302 1910 37 NA GM NOT_NAMED 1910-09-12 00:00:00 TS 23.6000 -88.3000 90 hurdat_atl main 234 234 O_____________ hurdat_atl AL031910 23.6000 -88.3000 HU 90 2 7 304
1910248N17302 1910 37 NA GM NOT_NAMED 1910-09-12 03:00:00 TS 23.7999 -88.6076 main 257 257 P_____________ AL031910 23.7999 -88.6076 HU 90 2 7 306
1910248N17302 1910 37 NA GM NOT_NAMED 1910-09-12 06:00:00 TS 24.0000 -88.9000 90 hurdat_atl main 281 281 O_____________ hurdat_atl AL031910 24.0000 -88.9000 HU 90 2 7 307
1910248N17302 1910 37 NA GM NOT_NAMED 1910-09-12 09:00:00 TS 24.1923 -89.1852 main 308 308 P_____________ AL031910 24.1923 -89.1852 HU 92 2 7 306
1910248N17302 1910 37 NA GM NOT_NAMED 1910-09-12 12:00:00 TS 24.4000 -89.5000 95 hurdat_atl main 336 336 O_____________ hurdat_atl AL031910 24.4000 -89.5000 HU 95 2 8 306
1910248N17302 1910 37 NA GM NOT_NAMED 1910-09-12 15:00:00 TS 24.6499 -89.8775 main 371 371 P_____________ AL031910 24.6499 -89.8775 HU 95 2 9 304
1910248N17302 1910 37 NA GM NOT_NAMED 1910-09-12 18:00:00 TS 24.9000 -90.3000 95 hurdat_atl main 415 415 O_____________ hurdat_atl AL031910 24.9000 -90.3000 HU 95 2 9 300
1910248N17302 1910 37 NA GM NOT_NAMED 1910-09-12 21:00:00 TS 25.1076 -90.7651 main 445 424 P_____________ AL031910 25.1076 -90.7651 HU 95 2 9 296
1910248N17302 1910 37 NA GM NOT_NAMED 1910-09-13 00:00:00 TS 25.3000 -91.2000 95 hurdat_atl main 425 405 O_____________ hurdat_atl AL031910 25.3000 -91.2000 HU 95 2 8 301
1910248N17302 1910 37 NA GM NOT_NAMED 1910-09-13 03:00:00 TS 25.5072 -91.5152 main 406 387 P_____________ AL031910 25.5072 -91.5152 HU 95 2 7 306
1910248N17302 1910 37 NA GM NOT_NAMED 1910-09-13 06:00:00 TS 25.7000 -91.8000 95 hurdat_atl main 389 376 O_____________ hurdat_atl AL031910 25.7000 -91.8000 HU 95 2 7 303
1910248N17302 1910 37 NA GM NOT_NAMED 1910-09-13 09:00:00 TS 25.8648 -92.1276 main 376 372 P_____________ AL031910 25.8648 -92.1276 HU 95 2 7 296
1910248N17302 1910 37 NA GM NOT_NAMED 1910-09-13 12:00:00 TS 26.0000 -92.5000 95 hurdat_atl main 380 378 O_____________ hurdat_atl AL031910 26.0000 -92.5000 HU 95 2 8 289
1910248N17302 1910 37 NA GM NOT_NAMED 1910-09-13 15:00:00 TS 26.1150 -92.9350 main 384 359 P_____________ AL031910 26.1150 -92.9350 HU 95 2 8 284
1910248N17302 1910 37 NA GM NOT_NAMED 1910-09-13 18:00:00 TS 26.2000 -93.4000 95 hurdat_atl main 359 329 O_____________ hurdat_atl AL031910 26.2000 -93.4000 HU 95 2 8 279
1910248N17302 1910 37 NA GM NOT_NAMED 1910-09-13 21:00:00 TS 26.2498 -93.8427 main 329 281 P_____________ AL031910 26.2498 -93.8427 HU 92 2 8 277
1910248N17302 1910 37 NA GM NOT_NAMED 1910-09-14 00:00:00 TS 26.3000 -94.3000 90 hurdat_atl main 281 233 O_____________ hurdat_atl AL031910 26.3000 -94.3000 HU 90 2 9 280
1910248N17302 1910 37 NA GM NOT_NAMED 1910-09-14 03:00:00 TS 26.3999 -94.7924 main 233 187 P_____________ AL031910 26.3999 -94.7924 HU 90 2 9 283
1910248N17302 1910 37 NA GM NOT_NAMED 1910-09-14 06:00:00 TS 26.5000 -95.3000 90 hurdat_atl main 187 141 O_____________ hurdat_atl AL031910 26.5000 -95.3000 HU 90 2 9 279
1910248N17302 1910 37 NA GM NOT_NAMED 1910-09-14 09:00:00 TS 26.5501 -95.8302 main 145 104 P_____________ AL031910 26.5501 -95.8302 HU 90 2 9 276
1910248N17302 1910 37 NA GM NOT_NAMED 1910-09-14 12:00:00 TS 26.6000 -96.3000 90 hurdat_atl main 104 80 O_____________ hurdat_atl AL031910 26.6000 -96.3000 HU 90 2 7 282
1910248N17302 1910 37 NA GM NOT_NAMED 1910-09-14 15:00:00 TS 26.6971 -96.6147 main 80 54 P_____________ AL031910 26.6971 -96.6147 HU 90 2 6 290
1910248N17302 1910 37 NA GM NOT_NAMED 1910-09-14 18:00:00 TS 26.8000 -96.9000 90 hurdat_atl main 54 19 O_____________ hurdat_atl AL031910 26.8000 -96.9000 HU 90 2 6 288
1910248N17302 1910 37 NA GM NOT_NAMED 1910-09-14 21:00:00 TS 26.8860 -97.2824 main 19 9 P_____________ AL031910 26.8860 -97.2824 HU 90 2 7 283
1910248N17302 1910 37 NA GM NOT_NAMED 1910-09-14 22:00:00 TS 26.9000 -97.4000 90 hurdat_atl main 9 0 O_____________ hurdat_atl AL031910 26.9000 -97.4000 L HU 90 2 6 273
1910248N17302 1910 37 NA NA NOT_NAMED 1910-09-15 00:00:00 TS 26.9000 -97.6000 65 hurdat_atl main 0 0 O_____________ hurdat_atl AL031910 26.9000 -97.6000 HU 65 1 6 275
1910248N17302 1910 37 NA NA NOT_NAMED 1910-09-15 03:00:00 TS 26.9448 -97.9383 main 0 0 P_____________ AL031910 26.9448 -97.9383 HU 55 0 6 279
1910248N17302 1910 37 NA NA NOT_NAMED 1910-09-15 06:00:00 TS 27.0000 -98.3000 45 hurdat_atl main 0 0 O_____________ hurdat_atl AL031910 27.0000 -98.3000 TS 45 0 6 276
1910248N17302 1910 37 NA NA NOT_NAMED 1910-09-15 09:00:00 TS 27.0075 -98.6576 main 0 0 P_____________ AL031910 27.0075 -98.6576 TS 40 0 6 270
1910248N17302 1910 37 NA NA NOT_NAMED 1910-09-15 12:00:00 TS 27.0000 -99.0000 35 hurdat_atl main 0 0 O_____________ hurdat_atl AL031910 27.0000 -99.0000 TS 35 0 6 269
1910248N17302 1910 37 NA NA NOT_NAMED 1910-09-15 15:00:00 TS 26.9976 -99.3100 main 0 0 P_____________ AL031910 26.9976 -99.3100 TS 32 -1 5 270
1910248N17302 1910 37 NA NA NOT_NAMED 1910-09-15 18:00:00 TS 27.0000 -99.6000 30 hurdat_atl main 0 O_____________ hurdat_atl AL031910 27.0000 -99.6000 TD 30 -1 5 271

About IBTrACS Database

This database is a web-friendly format of International Best Track Archive for Climate Stewardship (IBTrACS), a global best track data archive curated by NOAA dating back to 1842.

Updated: 2021-10-27